sensor_id;sensor_type;location;lat;lon;timestamp;temperature;humidity
64012;DHT22;50211;52.768;12.124;2023-03-14T00:00:32;11.10;99.90
64012;DHT22;50211;52.768;12.124;2023-03-14T00:02:58;11.20;99.90
64012;DHT22;50211;52.768;12.124;2023-03-14T00:05:23;11.20;99.90
64012;DHT22;50211;52.768;12.124;2023-03-14T00:07:49;11.10;99.90
64012;DHT22;50211;52.768;12.124;2023-03-14T00:10:15;11.10;99.90
64012;DHT22;50211;52.768;12.124;2023-03-14T00:12:41;11.10;99.90
64012;DHT22;50211;52.768;12.124;2023-03-14T00:15:08;11.10;99.90
64012;DHT22;50211;52.768;12.124;2023-03-14T00:17:35;11.10;99.90
64012;DHT22;50211;52.768;12.124;2023-03-14T00:20:01;11.20;99.90
64012;DHT22;50211;52.768;12.124;2023-03-14T00:22:33;11.20;99.90
64012;DHT22;50211;52.768;12.124;2023-03-14T00:24:59;11.10;99.90
64012;DHT22;50211;52.768;12.124;2023-03-14T00:27:24;11.00;99.90
64012;DHT22;50211;52.768;12.124;2023-03-14T00:29:50;11.00;99.90
64012;DHT22;50211;52.768;12.124;2023-03-14T00:32:16;11.10;99.90
64012;DHT22;50211;52.768;12.124;2023-03-14T00:34:41;11.00;99.90
64012;DHT22;50211;52.768;12.124;2023-03-14T00:37:07;11.00;99.90
64012;DHT22;50211;52.768;12.124;2023-03-14T00:39:32;11.00;99.90
64012;DHT22;50211;52.768;12.124;2023-03-14T00:41:58;11.00;99.90
64012;DHT22;50211;52.768;12.124;2023-03-14T00:44:23;11.00;99.90
64012;DHT22;50211;52.768;12.124;2023-03-14T00:46:50;10.90;99.90
64012;DHT22;50211;52.768;12.124;2023-03-14T00:49:15;10.90;99.90
64012;DHT22;50211;52.768;12.124;2023-03-14T00:51:41;10.80;99.90
64012;DHT22;50211;52.768;12.124;2023-03-14T00:54:06;10.90;99.90
64012;DHT22;50211;52.768;12.124;2023-03-14T00:56:32;10.80;99.90
64012;DHT22;50211;52.768;12.124;2023-03-14T00:58:57;10.80;99.90
64012;DHT22;50211;52.768;12.124;2023-03-14T01:01:23;10.80;99.90
64012;DHT22;50211;52.768;12.124;2023-03-14T01:03:53;10.80;99.90
64012;DHT22;50211;52.768;12.124;2023-03-14T01:06:24;10.80;99.90
64012;DHT22;50211;52.768;12.124;2023-03-14T01:08:50;10.80;99.90
64012;DHT22;50211;52.768;12.124;2023-03-14T01:11:22;10.90;99.90
64012;DHT22;50211;52.768;12.124;2023-03-14T01:13:48;10.80;99.90
64012;DHT22;50211;52.768;12.124;2023-03-14T01:16:15;10.90;99.90
64012;DHT22;50211;52.768;12.124;2023-03-14T01:18:42;10.80;99.90
64012;DHT22;50211;52.768;12.124;2023-03-14T01:21:20;10.90;99.90
64012;DHT22;50211;52.768;12.124;2023-03-14T01:23:47;11.00;99.90
64012;DHT22;50211;52.768;12.124;2023-03-14T01:26:15;11.00;99.90
64012;DHT22;50211;52.768;12.124;2023-03-14T01:28:41;10.90;99.90
64012;DHT22;50211;52.768;12.124;2023-03-14T01:31:09;10.90;99.90
64012;DHT22;50211;52.768;12.124;2023-03-14T01:33:35;10.90;99.90
64012;DHT22;50211;52.768;12.124;2023-03-14T01:36:01;10.90;99.90
64012;DHT22;50211;52.768;12.124;2023-03-14T01:38:30;10.90;99.90
64012;DHT22;50211;52.768;12.124;2023-03-14T01:40:57;10.90;99.90
64012;DHT22;50211;52.768;12.124;2023-03-14T01:43:23;10.90;99.90
64012;DHT22;50211;52.768;12.124;2023-03-14T01:48:54;11.00;99.90
64012;DHT22;50211;52.768;12.124;2023-03-14T01:51:25;11.00;99.90
64012;DHT22;50211;52.768;12.124;2023-03-14T01:53:57;11.00;99.90
64012;DHT22;50211;52.768;12.124;2023-03-14T01:56:24;10.90;99.90
64012;DHT22;50211;52.768;12.124;2023-03-14T01:58:51;10.90;99.90
64012;DHT22;50211;52.768;12.124;2023-03-14T02:01:20;11.00;99.90
64012;DHT22;50211;52.768;12.124;2023-03-14T02:03:50;10.90;99.90
64012;DHT22;50211;52.768;12.124;2023-03-14T02:06:20;10.90;99.90
64012;DHT22;50211;52.768;12.124;2023-03-14T02:08:47;10.80;99.90
64012;DHT22;50211;52.768;12.124;2023-03-14T02:11:15;10.90;99.90
64012;DHT22;50211;52.768;12.124;2023-03-14T02:13:42;10.90;99.90
64012;DHT22;50211;52.768;12.124;2023-03-14T02:16:08;10.80;99.90
64012;DHT22;50211;52.768;12.124;2023-03-14T02:18:33;10.80;99.90
64012;DHT22;50211;52.768;12.124;2023-03-14T02:23:38;10.80;99.90
64012;DHT22;50211;52.768;12.124;2023-03-14T02:26:22;10.80;99.90
64012;DHT22;50211;52.768;12.124;2023-03-14T02:28:50;10.80;99.90
64012;DHT22;50211;52.768;12.124;2023-03-14T02:31:18;10.80;99.90
64012;DHT22;50211;52.768;12.124;2023-03-14T02:33:44;10.80;99.90
64012;DHT22;50211;52.768;12.124;2023-03-14T02:36:12;10.80;99.90
64012;DHT22;50211;52.768;12.124;2023-03-14T02:38:56;10.80;99.90
64012;DHT22;50211;52.768;12.124;2023-03-14T02:41:23;10.70;99.90
64012;DHT22;50211;52.768;12.124;2023-03-14T02:43:49;10.70;99.90
64012;DHT22;50211;52.768;12.124;2023-03-14T02:46:18;10.60;99.90
64012;DHT22;50211;52.768;12.124;2023-03-14T02:48:46;10.60;99.90
64012;DHT22;50211;52.768;12.124;2023-03-14T02:51:14;10.60;99.90
64012;DHT22;50211;52.768;12.124;2023-03-14T02:53:40;10.60;99.90
64012;DHT22;50211;52.768;12.124;2023-03-14T02:56:07;10.70;99.90
64012;DHT22;50211;52.768;12.124;2023-03-14T02:58:33;10.70;99.90
64012;DHT22;50211;52.768;12.124;2023-03-14T03:00:58;10.80;99.90
64012;DHT22;50211;52.768;12.124;2023-03-14T03:03:24;10.70;99.90
64012;DHT22;50211;52.768;12.124;2023-03-14T03:05:50;10.70;99.90
64012;DHT22;50211;52.768;12.124;2023-03-14T03:08:18;10.70;99.90
64012;DHT22;50211;52.768;12.124;2023-03-14T03:10:44;10.70;99.90
64012;DHT22;50211;52.768;12.124;2023-03-14T03:13:09;10.70;99.90
64012;DHT22;50211;52.768;12.124;2023-03-14T03:15:35;10.70;99.90
64012;DHT22;50211;52.768;12.124;2023-03-14T03:18:00;10.70;99.90
64012;DHT22;50211;52.768;12.124;2023-03-14T03:20:26;10.60;99.90
64012;DHT22;50211;52.768;12.124;2023-03-14T03:22:51;10.70;99.90
64012;DHT22;50211;52.768;12.124;2023-03-14T03:25:17;10.70;99.90
64012;DHT22;50211;52.768;12.124;2023-03-14T03:27:42;10.60;99.90
64012;DHT22;50211;52.768;12.124;2023-03-14T03:30:10;10.60;99.90
64012;DHT22;50211;52.768;12.124;2023-03-14T03:32:35;10.60;99.90
64012;DHT22;50211;52.768;12.124;2023-03-14T03:35:05;10.60;99.90
64012;DHT22;50211;52.768;12.124;2023-03-14T03:37:34;10.60;99.90
64012;DHT22;50211;52.768;12.124;2023-03-14T03:40:00;10.60;99.90
64012;DHT22;50211;52.768;12.124;2023-03-14T03:42:28;10.60;99.90
64012;DHT22;50211;52.768;12.124;2023-03-14T03:44:53;10.50;99.90
64012;DHT22;50211;52.768;12.124;2023-03-14T03:47:19;10.50;99.90
64012;DHT22;50211;52.768;12.124;2023-03-14T03:49:44;10.50;99.90
64012;DHT22;50211;52.768;12.124;2023-03-14T03:52:10;10.50;99.90
64012;DHT22;50211;52.768;12.124;2023-03-14T03:54:36;10.40;99.90
64012;DHT22;50211;52.768;12.124;2023-03-14T03:57:01;10.30;99.90
64012;DHT22;50211;52.768;12.124;2023-03-14T03:59:27;10.40;99.90
64012;DHT22;50211;52.768;12.124;2023-03-14T04:01:52;10.40;99.90
64012;DHT22;50211;52.768;12.124;2023-03-14T04:04:18;10.40;99.90
64012;DHT22;50211;52.768;12.124;2023-03-14T04:06:44;10.40;99.90
64012;DHT22;50211;52.768;12.124;2023-03-14T04:09:10;10.30;99.90
64012;DHT22;50211;52.768;12.124;2023-03-14T04:11:36;10.30;99.90
64012;DHT22;50211;52.768;12.124;2023-03-14T04:14:02;10.30;99.90
64012;DHT22;50211;52.768;12.124;2023-03-14T04:16:28;10.40;99.90
64012;DHT22;50211;52.768;12.124;2023-03-14T04:18:53;10.30;99.90
64012;DHT22;50211;52.768;12.124;2023-03-14T04:21:19;10.30;99.90
64012;DHT22;50211;52.768;12.124;2023-03-14T04:23:44;10.30;99.90
64012;DHT22;50211;52.768;12.124;2023-03-14T04:26:10;10.30;99.90
64012;DHT22;50211;52.768;12.124;2023-03-14T04:28:36;10.40;99.90
64012;DHT22;50211;52.768;12.124;2023-03-14T04:31:09;10.30;99.90
64012;DHT22;50211;52.768;12.124;2023-03-14T04:33:35;10.30;99.90
64012;DHT22;50211;52.768;12.124;2023-03-14T04:36:03;10.30;99.90
64012;DHT22;50211;52.768;12.124;2023-03-14T04:38:28;10.30;99.90
64012;DHT22;50211;52.768;12.124;2023-03-14T04:40:54;10.20;99.90
64012;DHT22;50211;52.768;12.124;2023-03-14T04:43:19;10.20;99.90
64012;DHT22;50211;52.768;12.124;2023-03-14T04:45:45;10.30;99.90
64012;DHT22;50211;52.768;12.124;2023-03-14T04:48:11;10.30;99.90
64012;DHT22;50211;52.768;12.124;2023-03-14T04:50:37;10.30;99.90
64012;DHT22;50211;52.768;12.124;2023-03-14T04:53:03;10.30;99.90
64012;DHT22;50211;52.768;12.124;2023-03-14T04:55:30;10.30;99.90
64012;DHT22;50211;52.768;12.124;2023-03-14T04:57:57;10.30;99.90
64012;DHT22;50211;52.768;12.124;2023-03-14T05:00:23;10.30;99.90
64012;DHT22;50211;52.768;12.124;2023-03-14T05:02:48;10.30;99.90
64012;DHT22;50211;52.768;12.124;2023-03-14T05:05:14;10.30;99.90
64012;DHT22;50211;52.768;12.124;2023-03-14T05:07:39;10.30;99.90
64012;DHT22;50211;52.768;12.124;2023-03-14T05:10:05;10.30;99.90
64012;DHT22;50211;52.768;12.124;2023-03-14T05:12:31;10.30;99.90
64012;DHT22;50211;52.768;12.124;2023-03-14T05:14:56;10.30;99.90
64012;DHT22;50211;52.768;12.124;2023-03-14T05:17:22;10.30;99.90
64012;DHT22;50211;52.768;12.124;2023-03-14T05:19:47;10.20;99.90
64012;DHT22;50211;52.768;12.124;2023-03-14T05:22:13;10.30;99.90
64012;DHT22;50211;52.768;12.124;2023-03-14T05:24:38;10.20;99.90
64012;DHT22;50211;52.768;12.124;2023-03-14T05:27:04;10.20;99.90
64012;DHT22;50211;52.768;12.124;2023-03-14T05:29:30;10.10;99.90
64012;DHT22;50211;52.768;12.124;2023-03-14T05:31:56;10.20;99.90
64012;DHT22;50211;52.768;12.124;2023-03-14T05:34:21;10.10;99.90
64012;DHT22;50211;52.768;12.124;2023-03-14T05:36:46;10.20;99.90
64012;DHT22;50211;52.768;12.124;2023-03-14T05:39:12;10.20;99.90
64012;DHT22;50211;52.768;12.124;2023-03-14T05:41:37;10.20;99.90
64012;DHT22;50211;52.768;12.124;2023-03-14T05:44:03;10.20;99.90
64012;DHT22;50211;52.768;12.124;2023-03-14T05:46:29;10.30;99.90
64012;DHT22;50211;52.768;12.124;2023-03-14T05:48:59;10.30;99.90
64012;DHT22;50211;52.768;12.124;2023-03-14T05:51:24;10.30;99.90
64012;DHT22;50211;52.768;12.124;2023-03-14T05:53:50;10.30;99.90
64012;DHT22;50211;52.768;12.124;2023-03-14T05:56:15;10.40;99.90
64012;DHT22;50211;52.768;12.124;2023-03-14T05:58:41;10.40;99.90
64012;DHT22;50211;52.768;12.124;2023-03-14T06:01:07;10.40;99.90
64012;DHT22;50211;52.768;12.124;2023-03-14T06:03:33;10.40;99.90
64012;DHT22;50211;52.768;12.124;2023-03-14T06:05:58;10.40;99.90
64012;DHT22;50211;52.768;12.124;2023-03-14T06:08:24;10.40;99.90
64012;DHT22;50211;52.768;12.124;2023-03-14T06:10:50;10.40;99.90
64012;DHT22;50211;52.768;12.124;2023-03-14T06:13:16;10.50;99.90
64012;DHT22;50211;52.768;12.124;2023-03-14T06:15:41;10.50;99.90
64012;DHT22;50211;52.768;12.124;2023-03-14T06:18:07;10.50;99.90
64012;DHT22;50211;52.768;12.124;2023-03-14T06:20:35;10.50;99.90
64012;DHT22;50211;52.768;12.124;2023-03-14T06:23:00;10.50;99.90
64012;DHT22;50211;52.768;12.124;2023-03-14T06:25:26;10.40;99.90
64012;DHT22;50211;52.768;12.124;2023-03-14T06:27:51;10.50;99.90
64012;DHT22;50211;52.768;12.124;2023-03-14T06:30:17;10.50;99.90
64012;DHT22;50211;52.768;12.124;2023-03-14T06:32:42;10.50;99.90
64012;DHT22;50211;52.768;12.124;2023-03-14T06:35:08;10.60;99.90
64012;DHT22;50211;52.768;12.124;2023-03-14T06:37:34;10.50;99.90
64012;DHT22;50211;52.768;12.124;2023-03-14T06:39:59;10.50;99.90
64012;DHT22;50211;52.768;12.124;2023-03-14T06:42:25;10.60;99.90
64012;DHT22;50211;52.768;12.124;2023-03-14T06:44:50;10.60;99.90
64012;DHT22;50211;52.768;12.124;2023-03-14T06:47:16;10.50;99.90
64012;DHT22;50211;52.768;12.124;2023-03-14T06:49:41;10.50;99.90
64012;DHT22;50211;52.768;12.124;2023-03-14T06:52:07;10.50;99.90
64012;DHT22;50211;52.768;12.124;2023-03-14T06:54:32;10.50;99.90
64012;DHT22;50211;52.768;12.124;2023-03-14T06:56:58;10.50;99.90
64012;DHT22;50211;52.768;12.124;2023-03-14T06:59:23;10.50;99.90
64012;DHT22;50211;52.768;12.124;2023-03-14T07:01:49;10.60;99.90
64012;DHT22;50211;52.768;12.124;2023-03-14T07:04:16;10.60;99.90
64012;DHT22;50211;52.768;12.124;2023-03-14T07:06:42;10.70;99.90
64012;DHT22;50211;52.768;12.124;2023-03-14T07:09:10;10.80;99.90
64012;DHT22;50211;52.768;12.124;2023-03-14T07:11:36;11.00;99.90
64012;DHT22;50211;52.768;12.124;2023-03-14T07:14:02;11.10;99.90
64012;DHT22;50211;52.768;12.124;2023-03-14T07:16:27;11.20;99.90
64012;DHT22;50211;52.768;12.124;2023-03-14T07:18:56;11.20;99.90
64012;DHT22;50211;52.768;12.124;2023-03-14T07:21:22;11.20;99.90
64012;DHT22;50211;52.768;12.124;2023-03-14T07:23:47;11.10;99.90
64012;DHT22;50211;52.768;12.124;2023-03-14T07:26:13;11.10;99.90
64012;DHT22;50211;52.768;12.124;2023-03-14T07:28:38;11.10;99.90
64012;DHT22;50211;52.768;12.124;2023-03-14T07:31:04;11.20;99.90
64012;DHT22;50211;52.768;12.124;2023-03-14T07:33:30;11.30;99.90
64012;DHT22;50211;52.768;12.124;2023-03-14T07:35:55;11.30;99.90
64012;DHT22;50211;52.768;12.124;2023-03-14T07:38:21;11.40;99.90
64012;DHT22;50211;52.768;12.124;2023-03-14T07:40:47;11.30;99.90
64012;DHT22;50211;52.768;12.124;2023-03-14T07:43:12;11.30;99.90
64012;DHT22;50211;52.768;12.124;2023-03-14T07:45:37;11.50;99.90
64012;DHT22;50211;52.768;12.124;2023-03-14T07:48:03;11.70;99.90
64012;DHT22;50211;52.768;12.124;2023-03-14T07:50:29;11.80;99.90
64012;DHT22;50211;52.768;12.124;2023-03-14T07:52:55;12.00;99.90
64012;DHT22;50211;52.768;12.124;2023-03-14T07:55:20;12.10;99.90
64012;DHT22;50211;52.768;12.124;2023-03-14T07:57:46;12.20;99.90
64012;DHT22;50211;52.768;12.124;2023-03-14T08:00:12;12.00;99.90
64012;DHT22;50211;52.768;12.124;2023-03-14T08:02:39;12.10;99.90
64012;DHT22;50211;52.768;12.124;2023-03-14T08:05:05;12.20;99.90
64012;DHT22;50211;52.768;12.124;2023-03-14T08:07:31;12.30;99.90
64012;DHT22;50211;52.768;12.124;2023-03-14T08:09:56;12.40;99.90
64012;DHT22;50211;52.768;12.124;2023-03-14T08:12:22;12.60;99.90
64012;DHT22;50211;52.768;12.124;2023-03-14T08:14:47;12.80;99.90
64012;DHT22;50211;52.768;12.124;2023-03-14T08:17:13;12.90;99.90
64012;DHT22;50211;52.768;12.124;2023-03-14T08:19:38;13.10;99.90
64012;DHT22;50211;52.768;12.124;2023-03-14T08:22:05;13.20;99.90
64012;DHT22;50211;52.768;12.124;2023-03-14T08:24:31;13.30;99.90
64012;DHT22;50211;52.768;12.124;2023-03-14T08:26:57;13.40;99.90
64012;DHT22;50211;52.768;12.124;2023-03-14T08:29:22;13.30;99.90
64012;DHT22;50211;52.768;12.124;2023-03-14T08:31:47;13.30;99.90
64012;DHT22;50211;52.768;12.124;2023-03-14T08:34:14;13.40;99.90
64012;DHT22;50211;52.768;12.124;2023-03-14T08:36:40;13.40;99.90
64012;DHT22;50211;52.768;12.124;2023-03-14T08:39:06;13.60;99.90
64012;DHT22;50211;52.768;12.124;2023-03-14T08:41:33;13.80;99.90
64012;DHT22;50211;52.768;12.124;2023-03-14T08:43:58;13.80;99.90
64012;DHT22;50211;52.768;12.124;2023-03-14T08:46:24;13.60;99.90
64012;DHT22;50211;52.768;12.124;2023-03-14T08:48:49;13.80;99.90
64012;DHT22;50211;52.768;12.124;2023-03-14T08:51:15;13.90;99.90
64012;DHT22;50211;52.768;12.124;2023-03-14T08:53:41;13.70;99.90
64012;DHT22;50211;52.768;12.124;2023-03-14T08:56:07;13.50;99.90
64012;DHT22;50211;52.768;12.124;2023-03-14T08:58:35;13.30;99.90
64012;DHT22;50211;52.768;12.124;2023-03-14T09:01:04;13.10;99.90
64012;DHT22;50211;52.768;12.124;2023-03-14T09:03:30;12.90;99.90
64012;DHT22;50211;52.768;12.124;2023-03-14T09:05:55;12.90;99.90
64012;DHT22;50211;52.768;12.124;2023-03-14T09:08:20;12.80;99.90
64012;DHT22;50211;52.768;12.124;2023-03-14T09:10:46;12.80;99.90
64012;DHT22;50211;52.768;12.124;2023-03-14T09:13:11;12.90;99.90
64012;DHT22;50211;52.768;12.124;2023-03-14T09:15:37;12.70;99.90
64012;DHT22;50211;52.768;12.124;2023-03-14T09:18:02;12.70;99.90
64012;DHT22;50211;52.768;12.124;2023-03-14T09:20:28;12.70;99.90
64012;DHT22;50211;52.768;12.124;2023-03-14T09:22:54;12.70;99.90
64012;DHT22;50211;52.768;12.124;2023-03-14T09:25:19;12.70;99.90
64012;DHT22;50211;52.768;12.124;2023-03-14T09:27:45;12.70;99.90
64012;DHT22;50211;52.768;12.124;2023-03-14T09:30:11;12.60;99.90
64012;DHT22;50211;52.768;12.124;2023-03-14T09:32:36;12.50;99.90
64012;DHT22;50211;52.768;12.124;2023-03-14T09:35:02;12.40;99.90
64012;DHT22;50211;52.768;12.124;2023-03-14T09:37:28;12.40;99.90
64012;DHT22;50211;52.768;12.124;2023-03-14T09:39:53;12.50;99.90
64012;DHT22;50211;52.768;12.124;2023-03-14T09:42:22;12.50;99.90
64012;DHT22;50211;52.768;12.124;2023-03-14T09:44:59;12.70;99.90
64012;DHT22;50211;52.768;12.124;2023-03-14T09:47:26;12.70;99.90
64012;DHT22;50211;52.768;12.124;2023-03-14T09:49:52;12.80;99.90
64012;DHT22;50211;52.768;12.124;2023-03-14T09:52:29;12.90;99.90
64012;DHT22;50211;52.768;12.124;2023-03-14T09:55:05;13.00;99.90
64012;DHT22;50211;52.768;12.124;2023-03-14T09:57:33;13.10;99.90
64012;DHT22;50211;52.768;12.124;2023-03-14T10:00:14;13.10;99.90
64012;DHT22;50211;52.768;12.124;2023-03-14T10:02:59;13.10;99.90
64012;DHT22;50211;52.768;12.124;2023-03-14T10:05:27;13.10;99.90
64012;DHT22;50211;52.768;12.124;2023-03-14T10:07:54;13.30;99.90
64012;DHT22;50211;52.768;12.124;2023-03-14T10:10:22;13.40;99.90
64012;DHT22;50211;52.768;12.124;2023-03-14T10:12:58;13.50;99.90
64012;DHT22;50211;52.768;12.124;2023-03-14T10:15:27;13.40;99.90
64012;DHT22;50211;52.768;12.124;2023-03-14T10:17:54;13.40;99.90
64012;DHT22;50211;52.768;12.124;2023-03-14T10:20:38;13.30;99.90
64012;DHT22;50211;52.768;12.124;2023-03-14T10:23:23;13.20;99.90
64012;DHT22;50211;52.768;12.124;2023-03-14T10:28:38;13.20;99.90
64012;DHT22;50211;52.768;12.124;2023-03-14T10:31:05;13.30;99.90
64012;DHT22;50211;52.768;12.124;2023-03-14T10:33:35;13.30;99.90
64012;DHT22;50211;52.768;12.124;2023-03-14T10:36:03;13.30;99.90
64012;DHT22;50211;52.768;12.124;2023-03-14T10:38:32;13.30;99.90
64012;DHT22;50211;52.768;12.124;2023-03-14T10:40:59;13.30;99.90
64012;DHT22;50211;52.768;12.124;2023-03-14T10:43:33;13.20;99.90
64012;DHT22;50211;52.768;12.124;2023-03-14T10:46:02;13.20;99.90
64012;DHT22;50211;52.768;12.124;2023-03-14T10:48:34;13.00;99.90
64012;DHT22;50211;52.768;12.124;2023-03-14T10:51:10;13.00;99.90
64012;DHT22;50211;52.768;12.124;2023-03-14T10:53:45;13.00;99.90
64012;DHT22;50211;52.768;12.124;2023-03-14T10:56:17;13.00;99.90
64012;DHT22;50211;52.768;12.124;2023-03-14T10:58:45;12.90;99.90
64012;DHT22;50211;52.768;12.124;2023-03-14T11:07:18;12.50;99.90
64012;DHT22;50211;52.768;12.124;2023-03-14T11:10:07;12.00;99.90
64012;DHT22;50211;52.768;12.124;2023-03-14T11:12:57;11.60;99.90
64012;DHT22;50211;52.768;12.124;2023-03-14T11:21:19;12.80;99.90
64012;DHT22;50211;52.768;12.124;2023-03-14T11:26:40;13.50;99.90
64012;DHT22;50211;52.768;12.124;2023-03-14T11:31:59;13.90;99.90
64012;DHT22;50211;52.768;12.124;2023-03-14T11:34:29;14.10;99.90
64012;DHT22;50211;52.768;12.124;2023-03-14T11:37:06;14.20;99.90
64012;DHT22;50211;52.768;12.124;2023-03-14T11:39:45;14.30;99.90
64012;DHT22;50211;52.768;12.124;2023-03-14T11:42:15;14.60;99.90
64012;DHT22;50211;52.768;12.124;2023-03-14T11:44:46;14.40;99.90
64012;DHT22;50211;52.768;12.124;2023-03-14T11:47:23;14.60;99.90
64012;DHT22;50211;52.768;12.124;2023-03-14T11:50:15;14.40;99.90
64012;DHT22;50211;52.768;12.124;2023-03-14T11:52:48;13.90;99.90
64012;DHT22;50211;52.768;12.124;2023-03-14T11:55:31;13.60;99.90
64012;DHT22;50211;52.768;12.124;2023-03-14T12:00:36;13.50;99.90
64012;DHT22;50211;52.768;12.124;2023-03-14T12:06:48;13.90;99.90
64012;DHT22;50211;52.768;12.124;2023-03-14T12:08:54;13.80;99.90
64012;DHT22;50211;52.768;12.124;2023-03-14T12:13:57;13.60;99.90
64012;DHT22;50211;52.768;12.124;2023-03-14T12:18:49;13.30;99.90
64012;DHT22;50211;52.768;12.124;2023-03-14T12:21:14;13.10;99.90
64012;DHT22;50211;52.768;12.124;2023-03-14T12:23:52;12.60;99.90
64012;DHT22;50211;52.768;12.124;2023-03-14T12:26:20;12.00;99.90
64012;DHT22;50211;52.768;12.124;2023-03-14T12:36:59;11.90;99.90
64012;DHT22;50211;52.768;12.124;2023-03-14T12:51:00;15.10;99.90
64012;DHT22;50211;52.768;12.124;2023-03-14T12:59:45;15.30;99.90
64012;DHT22;50211;52.768;12.124;2023-03-14T13:05:04;14.60;99.90
64012;DHT22;50211;52.768;12.124;2023-03-14T13:07:34;14.60;99.90
64012;DHT22;50211;52.768;12.124;2023-03-14T13:12:48;13.90;99.90
64012;DHT22;50211;52.768;12.124;2023-03-14T13:18:02;13.90;99.90
64012;DHT22;50211;52.768;12.124;2023-03-14T13:20:35;13.70;99.90
64012;DHT22;50211;52.768;12.124;2023-03-14T13:23:02;13.60;99.90
64012;DHT22;50211;52.768;12.124;2023-03-14T13:25:35;13.60;99.90
64012;DHT22;50211;52.768;12.124;2023-03-14T13:28:01;13.50;99.90
64012;DHT22;50211;52.768;12.124;2023-03-14T13:30:35;13.40;99.90
64012;DHT22;50211;52.768;12.124;2023-03-14T13:33:03;13.40;99.90
64012;DHT22;50211;52.768;12.124;2023-03-14T13:35:46;13.30;99.90
64012;DHT22;50211;52.768;12.124;2023-03-14T13:38:18;13.20;99.90
64012;DHT22;50211;52.768;12.124;2023-03-14T13:40:45;12.10;99.90
64012;DHT22;50211;52.768;12.124;2023-03-14T13:43:18;11.10;99.90
64012;DHT22;50211;52.768;12.124;2023-03-14T13:48:32;9.70;99.90
64012;DHT22;50211;52.768;12.124;2023-03-14T13:51:03;8.50;99.90
64012;DHT22;50211;52.768;12.124;2023-03-14T13:53:29;7.90;99.90
64012;DHT22;50211;52.768;12.124;2023-03-14T13:55:55;7.50;99.90
64012;DHT22;50211;52.768;12.124;2023-03-14T13:58:27;7.20;99.90
64012;DHT22;50211;52.768;12.124;2023-03-14T14:01:02;7.00;99.90
64012;DHT22;50211;52.768;12.124;2023-03-14T14:03:31;6.90;99.90
64012;DHT22;50211;52.768;12.124;2023-03-14T14:05:57;6.70;99.90
64012;DHT22;50211;52.768;12.124;2023-03-14T14:08:24;6.40;99.90
64012;DHT22;50211;52.768;12.124;2023-03-14T14:10:53;6.20;99.90
64012;DHT22;50211;52.768;12.124;2023-03-14T14:13:21;5.90;99.90
64012;DHT22;50211;52.768;12.124;2023-03-14T14:15:49;5.60;99.90
64012;DHT22;50211;52.768;12.124;2023-03-14T14:18:18;5.10;99.90
64012;DHT22;50211;52.768;12.124;2023-03-14T14:20:47;4.60;99.90
64012;DHT22;50211;52.768;12.124;2023-03-14T14:23:17;4.60;99.90
64012;DHT22;50211;52.768;12.124;2023-03-14T14:25:45;4.50;99.90
64012;DHT22;50211;52.768;12.124;2023-03-14T14:30:40;4.40;99.90
64012;DHT22;50211;52.768;12.124;2023-03-14T14:33:24;4.10;99.90
64012;DHT22;50211;52.768;12.124;2023-03-14T14:35:57;4.00;99.90
64012;DHT22;50211;52.768;12.124;2023-03-14T14:38:24;3.90;99.90
64012;DHT22;50211;52.768;12.124;2023-03-14T14:40:53;3.80;99.90
64012;DHT22;50211;52.768;12.124;2023-03-14T14:43:22;3.70;99.90
64012;DHT22;50211;52.768;12.124;2023-03-14T14:45:51;3.70;99.90
64012;DHT22;50211;52.768;12.124;2023-03-14T14:48:21;3.60;99.90
64012;DHT22;50211;52.768;12.124;2023-03-14T14:53:44;3.60;99.90
64012;DHT22;50211;52.768;12.124;2023-03-14T14:56:26;3.50;99.90
64012;DHT22;50211;52.768;12.124;2023-03-14T14:58:58;3.60;99.90
64012;DHT22;50211;52.768;12.124;2023-03-14T15:01:25;3.80;99.90
64012;DHT22;50211;52.768;12.124;2023-03-14T15:03:56;3.80;99.90
64012;DHT22;50211;52.768;12.124;2023-03-14T15:06:23;3.80;99.90
64012;DHT22;50211;52.768;12.124;2023-03-14T15:08:49;3.80;99.90
64012;DHT22;50211;52.768;12.124;2023-03-14T15:11:20;3.80;99.90
64012;DHT22;50211;52.768;12.124;2023-03-14T15:13:48;3.90;99.90
64012;DHT22;50211;52.768;12.124;2023-03-14T15:16:16;3.90;99.90
64012;DHT22;50211;52.768;12.124;2023-03-14T15:18:42;3.90;99.90
64012;DHT22;50211;52.768;12.124;2023-03-14T15:21:11;3.90;99.90
64012;DHT22;50211;52.768;12.124;2023-03-14T15:23:37;3.90;99.90
64012;DHT22;50211;52.768;12.124;2023-03-14T15:26:02;4.00;99.90
64012;DHT22;50211;52.768;12.124;2023-03-14T15:28:30;4.00;99.90
64012;DHT22;50211;52.768;12.124;2023-03-14T15:30:57;4.00;99.90
64012;DHT22;50211;52.768;12.124;2023-03-14T15:33:25;4.00;99.90
64012;DHT22;50211;52.768;12.124;2023-03-14T15:35:51;4.00;99.90
64012;DHT22;50211;52.768;12.124;2023-03-14T15:38:19;4.00;99.90
64012;DHT22;50211;52.768;12.124;2023-03-14T15:40:53;4.00;99.90
64012;DHT22;50211;52.768;12.124;2023-03-14T15:43:19;4.00;99.90
64012;DHT22;50211;52.768;12.124;2023-03-14T15:45:45;3.90;99.90
64012;DHT22;50211;52.768;12.124;2023-03-14T15:48:18;3.90;99.90
64012;DHT22;50211;52.768;12.124;2023-03-14T15:50:45;4.00;99.90
64012;DHT22;50211;52.768;12.124;2023-03-14T15:53:11;4.00;99.90
64012;DHT22;50211;52.768;12.124;2023-03-14T15:55:37;4.00;99.90
64012;DHT22;50211;52.768;12.124;2023-03-14T15:58:02;3.90;99.90
64012;DHT22;50211;52.768;12.124;2023-03-14T16:00:29;3.90;99.90
64012;DHT22;50211;52.768;12.124;2023-03-14T16:02:55;4.00;99.90
64012;DHT22;50211;52.768;12.124;2023-03-14T16:05:20;4.00;99.90
64012;DHT22;50211;52.768;12.124;2023-03-14T16:07:46;3.80;99.90
64012;DHT22;50211;52.768;12.124;2023-03-14T16:10:14;3.60;99.90
64012;DHT22;50211;52.768;12.124;2023-03-14T16:12:40;3.60;99.90
64012;DHT22;50211;52.768;12.124;2023-03-14T16:15:07;3.60;99.90
64012;DHT22;50211;52.768;12.124;2023-03-14T16:17:33;3.70;99.90
64012;DHT22;50211;52.768;12.124;2023-03-14T16:19:59;3.70;99.90
64012;DHT22;50211;52.768;12.124;2023-03-14T16:22:24;3.70;99.90
64012;DHT22;50211;52.768;12.124;2023-03-14T16:24:50;3.80;99.90
64012;DHT22;50211;52.768;12.124;2023-03-14T16:27:15;3.80;99.90
64012;DHT22;50211;52.768;12.124;2023-03-14T16:29:42;3.90;99.90
64012;DHT22;50211;52.768;12.124;2023-03-14T16:32:08;3.90;99.90
64012;DHT22;50211;52.768;12.124;2023-03-14T16:34:33;3.90;99.90
64012;DHT22;50211;52.768;12.124;2023-03-14T16:36:59;3.90;99.90
64012;DHT22;50211;52.768;12.124;2023-03-14T16:39:24;3.90;99.90